sensor_id;sensor_type;location;lat;lon;timestamp;P1;durP1;ratioP1;P2;durP2;ratioP2
55069;SDS011;40967;52.070;8.596;2022-11-15T00:00:45;3.05;;;1.50;;
55069;SDS011;40967;52.070;8.596;2022-11-15T00:03:13;2.50;;;1.30;;
55069;SDS011;40967;52.070;8.596;2022-11-15T00:05:41;2.28;;;1.25;;
55069;SDS011;40967;52.070;8.596;2022-11-15T00:08:07;1.93;;;1.00;;
55069;SDS011;40967;52.070;8.596;2022-11-15T00:10:33;1.60;;;0.90;;
55069;SDS011;40967;52.070;8.596;2022-11-15T00:12:58;2.00;;;1.00;;
55069;SDS011;40967;52.070;8.596;2022-11-15T00:15:23;1.60;;;1.00;;
55069;SDS011;40967;52.070;8.596;2022-11-15T00:17:49;1.53;;;0.93;;
55069;SDS011;40967;52.070;8.596;2022-11-15T00:20:15;1.85;;;0.95;;
55069;SDS011;40967;52.070;8.596;2022-11-15T00:22:42;1.60;;;0.97;;
55069;SDS011;40967;52.070;8.596;2022-11-15T00:25:07;1.55;;;0.80;;
55069;SDS011;40967;52.070;8.596;2022-11-15T00:27:33;1.93;;;1.00;;
55069;SDS011;40967;52.070;8.596;2022-11-15T00:29:58;2.13;;;1.10;;
55069;SDS011;40967;52.070;8.596;2022-11-15T00:32:24;1.97;;;0.90;;
55069;SDS011;40967;52.070;8.596;2022-11-15T00:34:49;1.83;;;1.07;;
55069;SDS011;40967;52.070;8.596;2022-11-15T00:37:14;1.67;;;1.00;;
55069;SDS011;40967;52.070;8.596;2022-11-15T00:39:40;1.77;;;1.03;;
55069;SDS011;40967;52.070;8.596;2022-11-15T00:42:05;1.30;;;0.95;;
55069;SDS011;40967;52.070;8.596;2022-11-15T00:44:30;2.13;;;1.13;;
55069;SDS011;40967;52.070;8.596;2022-11-15T00:46:56;2.07;;;1.17;;
55069;SDS011;40967;52.070;8.596;2022-11-15T00:49:21;2.30;;;1.20;;
55069;SDS011;40967;52.070;8.596;2022-11-15T00:51:46;1.80;;;1.10;;
55069;SDS011;40967;52.070;8.596;2022-11-15T00:54:12;1.97;;;1.20;;
55069;SDS011;40967;52.070;8.596;2022-11-15T00:56:37;2.25;;;1.10;;
55069;SDS011;40967;52.070;8.596;2022-11-15T00:59:03;2.77;;;1.20;;
55069;SDS011;40967;52.070;8.596;2022-11-15T01:01:28;2.27;;;1.20;;
55069;SDS011;40967;52.070;8.596;2022-11-15T01:03:53;1.60;;;0.90;;
55069;SDS011;40967;52.070;8.596;2022-11-15T01:06:19;2.10;;;1.10;;
55069;SDS011;40967;52.070;8.596;2022-11-15T01:08:44;2.17;;;1.20;;
55069;SDS011;40967;52.070;8.596;2022-11-15T01:11:10;2.40;;;1.30;;
55069;SDS011;40967;52.070;8.596;2022-11-15T01:13:37;2.33;;;1.30;;
55069;SDS011;40967;52.070;8.596;2022-11-15T01:16:08;3.20;;;1.50;;
55069;SDS011;40967;52.070;8.596;2022-11-15T01:18:35;3.70;;;1.60;;
55069;SDS011;40967;52.070;8.596;2022-11-15T01:21:04;2.60;;;1.20;;
55069;SDS011;40967;52.070;8.596;2022-11-15T01:23:30;2.45;;;1.20;;
55069;SDS011;40967;52.070;8.596;2022-11-15T01:25:59;2.20;;;1.03;;
55069;SDS011;40967;52.070;8.596;2022-11-15T01:28:29;2.28;;;1.10;;
55069;SDS011;40967;52.070;8.596;2022-11-15T01:30:59;1.85;;;0.90;;
55069;SDS011;40967;52.070;8.596;2022-11-15T01:33:25;2.67;;;0.93;;
55069;SDS011;40967;52.070;8.596;2022-11-15T01:35:51;1.73;;;0.90;;
55069;SDS011;40967;52.070;8.596;2022-11-15T01:38:16;1.75;;;1.00;;
55069;SDS011;40967;52.070;8.596;2022-11-15T01:40:42;1.50;;;0.93;;
55069;SDS011;40967;52.070;8.596;2022-11-15T01:43:20;1.73;;;1.00;;
55069;SDS011;40967;52.070;8.596;2022-11-15T01:45:49;1.47;;;0.80;;
55069;SDS011;40967;52.070;8.596;2022-11-15T01:48:30;2.03;;;1.00;;
55069;SDS011;40967;52.070;8.596;2022-11-15T01:50:59;2.00;;;0.90;;
55069;SDS011;40967;52.070;8.596;2022-11-15T01:53:26;1.83;;;1.00;;
55069;SDS011;40967;52.070;8.596;2022-11-15T01:55:53;1.33;;;0.80;;
55069;SDS011;40967;52.070;8.596;2022-11-15T01:58:19;1.75;;;0.90;;
55069;SDS011;40967;52.070;8.596;2022-11-15T02:00:45;1.40;;;0.90;;
55069;SDS011;40967;52.070;8.596;2022-11-15T02:03:12;1.75;;;1.00;;
55069;SDS011;40967;52.070;8.596;2022-11-15T02:05:38;2.03;;;0.90;;
55069;SDS011;40967;52.070;8.596;2022-11-15T02:08:04;1.83;;;0.93;;
55069;SDS011;40967;52.070;8.596;2022-11-15T02:10:31;1.60;;;1.00;;
55069;SDS011;40967;52.070;8.596;2022-11-15T02:12:57;1.60;;;0.80;;
55069;SDS011;40967;52.070;8.596;2022-11-15T02:15:26;1.75;;;0.98;;
55069;SDS011;40967;52.070;8.596;2022-11-15T02:18:22;1.52;;;0.80;;
55069;SDS011;40967;52.070;8.596;2022-11-15T02:21:16;1.55;;;0.73;;
55069;SDS011;40967;52.070;8.596;2022-11-15T02:23:59;2.08;;;1.10;;
55069;SDS011;40967;52.070;8.596;2022-11-15T02:32:18;1.75;;;1.00;;
55069;SDS011;40967;52.070;8.596;2022-11-15T02:34:50;1.80;;;1.13;;
55069;SDS011;40967;52.070;8.596;2022-11-15T02:39:49;2.60;;;1.20;;
55069;SDS011;40967;52.070;8.596;2022-11-15T02:42:22;2.28;;;1.20;;
55069;SDS011;40967;52.070;8.596;2022-11-15T02:45:11;2.65;;;1.38;;
55069;SDS011;40967;52.070;8.596;2022-11-15T02:47:42;3.38;;;1.65;;
55069;SDS011;40967;52.070;8.596;2022-11-15T02:50:11;2.80;;;1.60;;
55069;SDS011;40967;52.070;8.596;2022-11-15T02:52:40;3.15;;;1.60;;
55069;SDS011;40967;52.070;8.596;2022-11-15T02:55:25;2.45;;;1.30;;
55069;SDS011;40967;52.070;8.596;2022-11-15T03:11:29;2.30;;;1.30;;
55069;SDS011;40967;52.070;8.596;2022-11-15T03:13:58;3.92;;;1.80;;
55069;SDS011;40967;52.070;8.596;2022-11-15T03:16:34;2.63;;;1.50;;
55069;SDS011;40967;52.070;8.596;2022-11-15T03:21:50;3.05;;;1.73;;
55069;SDS011;40967;52.070;8.596;2022-11-15T03:24:17;3.30;;;1.70;;
55069;SDS011;40967;52.070;8.596;2022-11-15T03:26:44;3.78;;;2.13;;
55069;SDS011;40967;52.070;8.596;2022-11-15T03:29:30;4.80;;;2.63;;
55069;SDS011;40967;52.070;8.596;2022-11-15T03:32:08;4.13;;;2.40;;
55069;SDS011;40967;52.070;8.596;2022-11-15T03:34:43;3.67;;;2.00;;
55069;SDS011;40967;52.070;8.596;2022-11-15T03:37:13;4.15;;;2.10;;
55069;SDS011;40967;52.070;8.596;2022-11-15T03:39:41;3.03;;;1.75;;
55069;SDS011;40967;52.070;8.596;2022-11-15T03:44:58;3.00;;;1.70;;
55069;SDS011;40967;52.070;8.596;2022-11-15T03:48:30;2.63;;;1.50;;
55069;SDS011;40967;52.070;8.596;2022-11-15T03:50:34;2.95;;;1.33;;
55069;SDS011;40967;52.070;8.596;2022-11-15T03:53:00;3.45;;;1.60;;
55069;SDS011;40967;52.070;8.596;2022-11-15T03:55:26;2.70;;;1.60;;
55069;SDS011;40967;52.070;8.596;2022-11-15T03:57:52;3.23;;;1.80;;
55069;SDS011;40967;52.070;8.596;2022-11-15T04:00:21;3.03;;;1.70;;
55069;SDS011;40967;52.070;8.596;2022-11-15T04:02:47;2.63;;;1.40;;
55069;SDS011;40967;52.070;8.596;2022-11-15T04:05:12;3.20;;;1.80;;
55069;SDS011;40967;52.070;8.596;2022-11-15T04:07:38;2.80;;;1.60;;
55069;SDS011;40967;52.070;8.596;2022-11-15T04:10:03;2.70;;;1.43;;
55069;SDS011;40967;52.070;8.596;2022-11-15T04:15:07;2.15;;;1.40;;
55069;SDS011;40967;52.070;8.596;2022-11-15T04:20:00;3.22;;;1.75;;
55069;SDS011;40967;52.070;8.596;2022-11-15T04:22:46;2.63;;;1.50;;
55069;SDS011;40967;52.070;8.596;2022-11-15T04:25:29;3.17;;;1.60;;
55069;SDS011;40967;52.070;8.596;2022-11-15T04:27:55;3.38;;;1.95;;
55069;SDS011;40967;52.070;8.596;2022-11-15T04:30:20;3.55;;;1.70;;
55069;SDS011;40967;52.070;8.596;2022-11-15T04:32:45;3.10;;;1.70;;
55069;SDS011;40967;52.070;8.596;2022-11-15T04:35:11;3.13;;;1.80;;
55069;SDS011;40967;52.070;8.596;2022-11-15T04:37:36;3.57;;;1.77;;
55069;SDS011;40967;52.070;8.596;2022-11-15T04:40:02;3.30;;;1.70;;
55069;SDS011;40967;52.070;8.596;2022-11-15T04:42:27;3.30;;;1.80;;
55069;SDS011;40967;52.070;8.596;2022-11-15T04:44:53;3.50;;;2.00;;
55069;SDS011;40967;52.070;8.596;2022-11-15T04:47:18;3.37;;;1.70;;
55069;SDS011;40967;52.070;8.596;2022-11-15T04:49:43;2.63;;;1.60;;
55069;SDS011;40967;52.070;8.596;2022-11-15T04:52:09;3.00;;;1.60;;
55069;SDS011;40967;52.070;8.596;2022-11-15T04:54:34;3.83;;;2.10;;
55069;SDS011;40967;52.070;8.596;2022-11-15T04:57:00;3.63;;;1.90;;
55069;SDS011;40967;52.070;8.596;2022-11-15T04:59:25;3.00;;;1.70;;
55069;SDS011;40967;52.070;8.596;2022-11-15T05:01:50;3.87;;;2.10;;
55069;SDS011;40967;52.070;8.596;2022-11-15T05:04:16;4.40;;;2.10;;
55069;SDS011;40967;52.070;8.596;2022-11-15T05:06:44;4.88;;;2.10;;
55069;SDS011;40967;52.070;8.596;2022-11-15T05:09:10;5.25;;;2.70;;
55069;SDS011;40967;52.070;8.596;2022-11-15T05:11:38;6.13;;;3.77;;
55069;SDS011;40967;52.070;8.596;2022-11-15T05:14:03;5.10;;;2.80;;
55069;SDS011;40967;52.070;8.596;2022-11-15T05:16:29;4.90;;;2.60;;
55069;SDS011;40967;52.070;8.596;2022-11-15T05:18:54;4.55;;;2.30;;
55069;SDS011;40967;52.070;8.596;2022-11-15T05:21:20;4.90;;;2.60;;
55069;SDS011;40967;52.070;8.596;2022-11-15T05:23:45;3.83;;;2.00;;
55069;SDS011;40967;52.070;8.596;2022-11-15T05:26:15;4.70;;;2.40;;
55069;SDS011;40967;52.070;8.596;2022-11-15T05:28:42;3.73;;;2.00;;
55069;SDS011;40967;52.070;8.596;2022-11-15T05:31:12;3.40;;;1.92;;
55069;SDS011;40967;52.070;8.596;2022-11-15T05:33:39;3.85;;;1.83;;
55069;SDS011;40967;52.070;8.596;2022-11-15T05:38:49;5.13;;;2.70;;
55069;SDS011;40967;52.070;8.596;2022-11-15T05:41:16;3.43;;;2.13;;
55069;SDS011;40967;52.070;8.596;2022-11-15T05:43:44;4.40;;;2.25;;
55069;SDS011;40967;52.070;8.596;2022-11-15T05:46:10;3.80;;;2.10;;
55069;SDS011;40967;52.070;8.596;2022-11-15T05:48:38;3.53;;;2.03;;
55069;SDS011;40967;52.070;8.596;2022-11-15T05:51:08;3.15;;;1.70;;
55069;SDS011;40967;52.070;8.596;2022-11-15T05:53:34;3.70;;;2.10;;
55069;SDS011;40967;52.070;8.596;2022-11-15T05:56:02;5.20;;;3.10;;
55069;SDS011;40967;52.070;8.596;2022-11-15T05:58:30;3.70;;;2.10;;
55069;SDS011;40967;52.070;8.596;2022-11-15T06:00:57;4.47;;;2.50;;
55069;SDS011;40967;52.070;8.596;2022-11-15T06:03:22;3.60;;;2.20;;
55069;SDS011;40967;52.070;8.596;2022-11-15T06:05:48;3.80;;;2.20;;
55069;SDS011;40967;52.070;8.596;2022-11-15T06:08:13;4.20;;;2.10;;
55069;SDS011;40967;52.070;8.596;2022-11-15T06:10:38;4.03;;;2.30;;
55069;SDS011;40967;52.070;8.596;2022-11-15T06:13:04;3.97;;;2.40;;
55069;SDS011;40967;52.070;8.596;2022-11-15T06:15:29;3.83;;;2.08;;
55069;SDS011;40967;52.070;8.596;2022-11-15T06:17:58;5.38;;;2.75;;
55069;SDS011;40967;52.070;8.596;2022-11-15T06:20:24;3.67;;;2.15;;
55069;SDS011;40967;52.070;8.596;2022-11-15T06:22:50;4.07;;;2.17;;
55069;SDS011;40967;52.070;8.596;2022-11-15T06:25:16;4.17;;;2.30;;
55069;SDS011;40967;52.070;8.596;2022-11-15T06:27:41;3.83;;;2.23;;
55069;SDS011;40967;52.070;8.596;2022-11-15T06:30:06;3.85;;;2.10;;
55069;SDS011;40967;52.070;8.596;2022-11-15T06:32:32;3.60;;;1.90;;
55069;SDS011;40967;52.070;8.596;2022-11-15T06:34:58;3.20;;;2.00;;
55069;SDS011;40967;52.070;8.596;2022-11-15T06:37:23;3.42;;;1.67;;
55069;SDS011;40967;52.070;8.596;2022-11-15T06:39:48;2.33;;;1.30;;
55069;SDS011;40967;52.070;8.596;2022-11-15T06:42:14;3.00;;;1.43;;
55069;SDS011;40967;52.070;8.596;2022-11-15T06:44:39;2.93;;;1.50;;
55069;SDS011;40967;52.070;8.596;2022-11-15T06:47:04;2.87;;;1.57;;
55069;SDS011;40967;52.070;8.596;2022-11-15T06:49:32;3.17;;;1.67;;
55069;SDS011;40967;52.070;8.596;2022-11-15T06:51:57;2.40;;;1.40;;
55069;SDS011;40967;52.070;8.596;2022-11-15T06:54:22;2.65;;;1.35;;
55069;SDS011;40967;52.070;8.596;2022-11-15T06:56:48;3.03;;;1.60;;
55069;SDS011;40967;52.070;8.596;2022-11-15T06:59:13;2.60;;;1.50;;
55069;SDS011;40967;52.070;8.596;2022-11-15T07:01:39;3.50;;;2.03;;
55069;SDS011;40967;52.070;8.596;2022-11-15T07:04:04;3.70;;;2.00;;
55069;SDS011;40967;52.070;8.596;2022-11-15T07:06:29;4.23;;;2.43;;
55069;SDS011;40967;52.070;8.596;2022-11-15T07:08:55;3.20;;;1.80;;
55069;SDS011;40967;52.070;8.596;2022-11-15T07:11:20;3.33;;;1.87;;
55069;SDS011;40967;52.070;8.596;2022-11-15T07:13:45;3.53;;;1.70;;
55069;SDS011;40967;52.070;8.596;2022-11-15T07:16:11;4.23;;;2.43;;
55069;SDS011;40967;52.070;8.596;2022-11-15T07:18:37;3.20;;;1.87;;
55069;SDS011;40967;52.070;8.596;2022-11-15T07:21:04;3.83;;;2.15;;
55069;SDS011;40967;52.070;8.596;2022-11-15T07:23:31;2.88;;;1.60;;
55069;SDS011;40967;52.070;8.596;2022-11-15T07:25:57;3.13;;;1.60;;
55069;SDS011;40967;52.070;8.596;2022-11-15T07:28:23;2.92;;;1.50;;
55069;SDS011;40967;52.070;8.596;2022-11-15T07:30:49;3.40;;;1.60;;
55069;SDS011;40967;52.070;8.596;2022-11-15T07:33:14;3.30;;;1.70;;
55069;SDS011;40967;52.070;8.596;2022-11-15T07:35:40;2.87;;;1.70;;
55069;SDS011;40967;52.070;8.596;2022-11-15T07:38:05;3.03;;;1.70;;
55069;SDS011;40967;52.070;8.596;2022-11-15T07:40:31;5.73;;;3.53;;
55069;SDS011;40967;52.070;8.596;2022-11-15T07:43:00;4.78;;;2.30;;
55069;SDS011;40967;52.070;8.596;2022-11-15T07:45:26;3.80;;;1.85;;
55069;SDS011;40967;52.070;8.596;2022-11-15T07:47:52;3.90;;;2.07;;
55069;SDS011;40967;52.070;8.596;2022-11-15T07:50:17;2.37;;;1.47;;
55069;SDS011;40967;52.070;8.596;2022-11-15T07:52:44;4.40;;;2.40;;
55069;SDS011;40967;52.070;8.596;2022-11-15T07:55:09;3.67;;;2.00;;
55069;SDS011;40967;52.070;8.596;2022-11-15T07:57:35;3.80;;;2.10;;
55069;SDS011;40967;52.070;8.596;2022-11-15T08:00:00;3.40;;;1.80;;
55069;SDS011;40967;52.070;8.596;2022-11-15T08:02:26;3.22;;;1.55;;
55069;SDS011;40967;52.070;8.596;2022-11-15T08:04:51;3.13;;;1.70;;
55069;SDS011;40967;52.070;8.596;2022-11-15T08:07:17;4.13;;;2.30;;
55069;SDS011;40967;52.070;8.596;2022-11-15T08:09:43;3.30;;;1.63;;
55069;SDS011;40967;52.070;8.596;2022-11-15T08:12:09;2.67;;;1.30;;
55069;SDS011;40967;52.070;8.596;2022-11-15T08:14:34;3.07;;;1.70;;
55069;SDS011;40967;52.070;8.596;2022-11-15T08:17:00;2.75;;;1.60;;
55069;SDS011;40967;52.070;8.596;2022-11-15T08:19:25;4.07;;;1.90;;
55069;SDS011;40967;52.070;8.596;2022-11-15T08:21:51;3.30;;;1.90;;
55069;SDS011;40967;52.070;8.596;2022-11-15T08:24:16;3.53;;;2.13;;
55069;SDS011;40967;52.070;8.596;2022-11-15T08:26:42;4.10;;;2.07;;
55069;SDS011;40967;52.070;8.596;2022-11-15T08:29:07;3.03;;;1.63;;
55069;SDS011;40967;52.070;8.596;2022-11-15T08:31:33;3.55;;;1.77;;
55069;SDS011;40967;52.070;8.596;2022-11-15T08:34:01;3.40;;;1.70;;
55069;SDS011;40967;52.070;8.596;2022-11-15T08:36:27;3.50;;;1.83;;
55069;SDS011;40967;52.070;8.596;2022-11-15T08:38:52;3.33;;;1.70;;
55069;SDS011;40967;52.070;8.596;2022-11-15T08:41:28;3.40;;;1.80;;
55069;SDS011;40967;52.070;8.596;2022-11-15T08:43:56;2.80;;;1.35;;
55069;SDS011;40967;52.070;8.596;2022-11-15T08:46:21;2.80;;;1.60;;
55069;SDS011;40967;52.070;8.596;2022-11-15T08:48:47;3.83;;;2.23;;
55069;SDS011;40967;52.070;8.596;2022-11-15T08:51:12;3.60;;;1.80;;
55069;SDS011;40967;52.070;8.596;2022-11-15T08:53:38;2.70;;;1.50;;
55069;SDS011;40967;52.070;8.596;2022-11-15T08:56:06;3.33;;;1.80;;
55069;SDS011;40967;52.070;8.596;2022-11-15T08:58:34;2.42;;;1.40;;
55069;SDS011;40967;52.070;8.596;2022-11-15T09:00:59;3.00;;;1.50;;
55069;SDS011;40967;52.070;8.596;2022-11-15T09:03:25;2.85;;;1.30;;
55069;SDS011;40967;52.070;8.596;2022-11-15T09:05:57;2.10;;;1.30;;
55069;SDS011;40967;52.070;8.596;2022-11-15T09:08:24;4.05;;;1.58;;
55069;SDS011;40967;52.070;8.596;2022-11-15T09:10:51;2.33;;;1.13;;
55069;SDS011;40967;52.070;8.596;2022-11-15T09:13:16;1.98;;;1.10;;
55069;SDS011;40967;52.070;8.596;2022-11-15T09:15:42;1.90;;;1.10;;
55069;SDS011;40967;52.070;8.596;2022-11-15T09:18:07;4.37;;;2.10;;
55069;SDS011;40967;52.070;8.596;2022-11-15T09:20:33;2.70;;;1.40;;
55069;SDS011;40967;52.070;8.596;2022-11-15T09:23:01;2.13;;;1.10;;
55069;SDS011;40967;52.070;8.596;2022-11-15T09:25:28;2.45;;;1.17;;
55069;SDS011;40967;52.070;8.596;2022-11-15T09:27:54;2.00;;;1.08;;
55069;SDS011;40967;52.070;8.596;2022-11-15T09:30:20;3.30;;;1.50;;
55069;SDS011;40967;52.070;8.596;2022-11-15T09:32:45;2.67;;;1.40;;
55069;SDS011;40967;52.070;8.596;2022-11-15T09:35:11;3.67;;;1.40;;
55069;SDS011;40967;52.070;8.596;2022-11-15T09:37:36;2.47;;;1.10;;
55069;SDS011;40967;52.070;8.596;2022-11-15T09:40:02;2.30;;;0.90;;
55069;SDS011;40967;52.070;8.596;2022-11-15T09:42:43;2.63;;;1.17;;
55069;SDS011;40967;52.070;8.596;2022-11-15T09:47:49;1.23;;;0.80;;
55069;SDS011;40967;52.070;8.596;2022-11-15T09:50:39;3.00;;;1.42;;
55069;SDS011;40967;52.070;8.596;2022-11-15T09:53:22;2.40;;;1.20;;
55069;SDS011;40967;52.070;8.596;2022-11-15T10:01:04;1.25;;;0.80;;
55069;SDS011;40967;52.070;8.596;2022-11-15T10:03:37;0.90;;;0.60;;
55069;SDS011;40967;52.070;8.596;2022-11-15T10:06:08;1.15;;;0.70;;
55069;SDS011;40967;52.070;8.596;2022-11-15T10:11:25;0.95;;;0.57;;
55069;SDS011;40967;52.070;8.596;2022-11-15T10:13:57;0.80;;;0.60;;
55069;SDS011;40967;52.070;8.596;2022-11-15T10:19:20;1.65;;;0.95;;
55069;SDS011;40967;52.070;8.596;2022-11-15T10:24:39;1.40;;;0.65;;
55069;SDS011;40967;52.070;8.596;2022-11-15T10:27:16;1.43;;;0.67;;
55069;SDS011;40967;52.070;8.596;2022-11-15T10:29:47;1.87;;;0.67;;
55069;SDS011;40967;52.070;8.596;2022-11-15T10:32:15;0.80;;;0.50;;
55069;SDS011;40967;52.070;8.596;2022-11-15T10:34:43;1.10;;;0.57;;
55069;SDS011;40967;52.070;8.596;2022-11-15T10:37:09;0.80;;;0.50;;
55069;SDS011;40967;52.070;8.596;2022-11-15T10:39:35;0.90;;;0.50;;
55069;SDS011;40967;52.070;8.596;2022-11-15T10:44:42;0.90;;;0.40;;
55069;SDS011;40967;52.070;8.596;2022-11-15T10:47:28;0.70;;;0.50;;
55069;SDS011;40967;52.070;8.596;2022-11-15T10:52:25;0.90;;;0.50;;
55069;SDS011;40967;52.070;8.596;2022-11-15T10:54:54;2.45;;;0.70;;
55069;SDS011;40967;52.070;8.596;2022-11-15T10:57:23;1.27;;;0.60;;
55069;SDS011;40967;52.070;8.596;2022-11-15T10:59:56;2.63;;;0.70;;
55069;SDS011;40967;52.070;8.596;2022-11-15T11:04:54;1.30;;;0.60;;
55069;SDS011;40967;52.070;8.596;2022-11-15T11:07:21;1.50;;;0.60;;
55069;SDS011;40967;52.070;8.596;2022-11-15T11:09:56;0.70;;;0.50;;
55069;SDS011;40967;52.070;8.596;2022-11-15T11:12:41;0.70;;;0.40;;
55069;SDS011;40967;52.070;8.596;2022-11-15T11:15:11;1.17;;;0.60;;
55069;SDS011;40967;52.070;8.596;2022-11-15T11:23:09;1.05;;;0.50;;
55069;SDS011;40967;52.070;8.596;2022-11-15T11:28:43;1.50;;;0.50;;
55069;SDS011;40967;52.070;8.596;2022-11-15T11:31:33;1.20;;;0.50;;
55069;SDS011;40967;52.070;8.596;2022-11-15T11:51:37;1.65;;;0.63;;
55069;SDS011;40967;52.070;8.596;2022-11-15T11:54:11;0.80;;;0.60;;
55069;SDS011;40967;52.070;8.596;2022-11-15T11:56:43;0.90;;;0.50;;
55069;SDS011;40967;52.070;8.596;2022-11-15T11:59:21;1.15;;;0.55;;
55069;SDS011;40967;52.070;8.596;2022-11-15T12:01:59;2.00;;;0.70;;
55069;SDS011;40967;52.070;8.596;2022-11-15T12:04:38;1.17;;;0.60;;
55069;SDS011;40967;52.070;8.596;2022-11-15T12:07:13;0.82;;;0.60;;
55069;SDS011;40967;52.070;8.596;2022-11-15T12:09:53;1.80;;;0.73;;
55069;SDS011;40967;52.070;8.596;2022-11-15T12:17:25;1.52;;;0.70;;
55069;SDS011;40967;52.070;8.596;2022-11-15T12:19:57;0.63;;;0.45;;
55069;SDS011;40967;52.070;8.596;2022-11-15T12:28:18;2.55;;;0.82;;
55069;SDS011;40967;52.070;8.596;2022-11-15T12:30:54;1.92;;;0.55;;
55069;SDS011;40967;52.070;8.596;2022-11-15T12:33:29;0.98;;;0.40;;
55069;SDS011;40967;52.070;8.596;2022-11-15T12:36:01;0.95;;;0.50;;
55069;SDS011;40967;52.070;8.596;2022-11-15T12:41:17;1.35;;;0.50;;
55069;SDS011;40967;52.070;8.596;2022-11-15T12:43:44;0.70;;;0.40;;
55069;SDS011;40967;52.070;8.596;2022-11-15T12:46:12;0.98;;;0.50;;
55069;SDS011;40967;52.070;8.596;2022-11-15T12:48:46;1.15;;;0.60;;
55069;SDS011;40967;52.070;8.596;2022-11-15T12:51:13;0.68;;;0.40;;
55069;SDS011;40967;52.070;8.596;2022-11-15T12:53:38;0.50;;;0.40;;
55069;SDS011;40967;52.070;8.596;2022-11-15T13:06:44;1.58;;;0.88;;
55069;SDS011;40967;52.070;8.596;2022-11-15T13:11:55;0.90;;;0.50;;
55069;SDS011;40967;52.070;8.596;2022-11-15T13:17:03;1.42;;;0.63;;
55069;SDS011;40967;52.070;8.596;2022-11-15T13:19:41;0.70;;;0.50;;
55069;SDS011;40967;52.070;8.596;2022-11-15T13:22:10;1.20;;;0.60;;
55069;SDS011;40967;52.070;8.596;2022-11-15T13:24:55;1.05;;;0.57;;
55069;SDS011;40967;52.070;8.596;2022-11-15T13:27:21;0.93;;;0.50;;
55069;SDS011;40967;52.070;8.596;2022-11-15T13:29:47;1.00;;;0.43;;
55069;SDS011;40967;52.070;8.596;2022-11-15T13:32:13;0.57;;;0.40;;
55069;SDS011;40967;52.070;8.596;2022-11-15T13:34:44;0.85;;;0.40;;
55069;SDS011;40967;52.070;8.596;2022-11-15T13:39:49;1.10;;;0.43;;
55069;SDS011;40967;52.070;8.596;2022-11-15T13:42:18;1.13;;;0.50;;
55069;SDS011;40967;52.070;8.596;2022-11-15T13:45:02;0.88;;;0.40;;
55069;SDS011;40967;52.070;8.596;2022-11-15T13:47:29;0.55;;;0.38;;
55069;SDS011;40967;52.070;8.596;2022-11-15T13:49:56;0.80;;;0.38;;
55069;SDS011;40967;52.070;8.596;2022-11-15T13:52:24;0.70;;;0.40;;
55069;SDS011;40967;52.070;8.596;2022-11-15T13:57:42;1.02;;;0.45;;
55069;SDS011;40967;52.070;8.596;2022-11-15T14:03:16;0.40;;;0.30;;
55069;SDS011;40967;52.070;8.596;2022-11-15T14:06:02;0.45;;;0.35;;
55069;SDS011;40967;52.070;8.596;2022-11-15T14:08:40;0.60;;;0.50;;
55069;SDS011;40967;52.070;8.596;2022-11-15T14:11:26;0.95;;;0.40;;
55069;SDS011;40967;52.070;8.596;2022-11-15T14:16:36;0.70;;;0.50;;
55069;SDS011;40967;52.070;8.596;2022-11-15T14:19:32;1.00;;;0.60;;
55069;SDS011;40967;52.070;8.596;2022-11-15T14:27:37;1.27;;;0.77;;
55069;SDS011;40967;52.070;8.596;2022-11-15T14:30:03;1.30;;;0.50;;
55069;SDS011;40967;52.070;8.596;2022-11-15T14:32:36;0.75;;;0.40;;
55069;SDS011;40967;52.070;8.596;2022-11-15T14:35:29;1.00;;;0.50;;
55069;SDS011;40967;52.070;8.596;2022-11-15T14:37:53;1.23;;;0.63;;
55069;SDS011;40967;52.070;8.596;2022-11-15T14:40:20;0.70;;;0.50;;
55069;SDS011;40967;52.070;8.596;2022-11-15T14:42:47;0.77;;;0.50;;
55069;SDS011;40967;52.070;8.596;2022-11-15T14:47:41;0.70;;;0.47;;
55069;SDS011;40967;52.070;8.596;2022-11-15T14:50:10;0.82;;;0.50;;
55069;SDS011;40967;52.070;8.596;2022-11-15T14:52:40;0.75;;;0.40;;
55069;SDS011;40967;52.070;8.596;2022-11-15T14:55:48;0.43;;;0.30;;
55069;SDS011;40967;52.070;8.596;2022-11-15T14:58:01;0.57;;;0.30;;
55069;SDS011;40967;52.070;8.596;2022-11-15T15:00:28;1.20;;;0.40;;
55069;SDS011;40967;52.070;8.596;2022-11-15T15:02:54;0.30;;;0.30;;
55069;SDS011;40967;52.070;8.596;2022-11-15T15:05:24;0.80;;;0.40;;
55069;SDS011;40967;52.070;8.596;2022-11-15T15:07:54;0.43;;;0.32;;
55069;SDS011;40967;52.070;8.596;2022-11-15T15:10:20;0.90;;;0.50;;
55069;SDS011;40967;52.070;8.596;2022-11-15T15:12:45;0.60;;;0.40;;
55069;SDS011;40967;52.070;8.596;2022-11-15T15:15:15;0.70;;;0.47;;
55069;SDS011;40967;52.070;8.596;2022-11-15T15:17:44;0.90;;;0.40;;
55069;SDS011;40967;52.070;8.596;2022-11-15T15:20:09;1.60;;;0.70;;
55069;SDS011;40967;52.070;8.596;2022-11-15T15:22:35;0.60;;;0.40;;
55069;SDS011;40967;52.070;8.596;2022-11-15T15:25:02;0.83;;;0.50;;
55069;SDS011;40967;52.070;8.596;2022-11-15T15:27:29;1.13;;;0.50;;
55069;SDS011;40967;52.070;8.596;2022-11-15T15:29:54;1.42;;;0.50;;
55069;SDS011;40967;52.070;8.596;2022-11-15T15:32:20;0.90;;;0.50;;
55069;SDS011;40967;52.070;8.596;2022-11-15T15:34:46;1.33;;;0.60;;
55069;SDS011;40967;52.070;8.596;2022-11-15T15:39:47;1.23;;;0.60;;
55069;SDS011;40967;52.070;8.596;2022-11-15T15:42:13;0.80;;;0.47;;
55069;SDS011;40967;52.070;8.596;2022-11-15T15:44:39;1.10;;;0.60;;
55069;SDS011;40967;52.070;8.596;2022-11-15T15:47:09;1.17;;;0.57;;
55069;SDS011;40967;52.070;8.596;2022-11-15T15:49:36;1.30;;;0.50;;
55069;SDS011;40967;52.070;8.596;2022-11-15T15:52:02;0.47;;;0.30;;
55069;SDS011;40967;52.070;8.596;2022-11-15T15:54:27;1.30;;;0.75;;
55069;SDS011;40967;52.070;8.596;2022-11-15T15:56:52;1.10;;;0.60;;
55069;SDS011;40967;52.070;8.596;2022-11-15T15:59:18;0.80;;;0.53;;
55069;SDS011;40967;52.070;8.596;2022-11-15T16:01:43;1.43;;;0.60;;
55069;SDS011;40967;52.070;8.596;2022-11-15T16:04:09;1.03;;;0.50;;
55069;SDS011;40967;52.070;8.596;2022-11-15T16:09:02;0.68;;;0.40;;
55069;SDS011;40967;52.070;8.596;2022-11-15T16:11:28;0.82;;;0.40;;
55069;SDS011;40967;52.070;8.596;2022-11-15T16:13:53;1.13;;;0.47;;
55069;SDS011;40967;52.070;8.596;2022-11-15T16:16:18;1.10;;;0.50;;
55069;SDS011;40967;52.070;8.596;2022-11-15T16:18:46;1.50;;;0.60;;
55069;SDS011;40967;52.070;8.596;2022-11-15T16:21:12;3.63;;;1.30;;
55069;SDS011;40967;52.070;8.596;2022-11-15T16:23:37;1.70;;;0.80;;
55069;SDS011;40967;52.070;8.596;2022-11-15T16:26:04;1.90;;;0.80;;
55069;SDS011;40967;52.070;8.596;2022-11-15T16:28:42;1.55;;;0.70;;
55069;SDS011;40967;52.070;8.596;2022-11-15T16:31:08;1.53;;;0.80;;
55069;SDS011;40967;52.070;8.596;2022-11-15T16:33:35;1.85;;;0.90;;
55069;SDS011;40967;52.070;8.596;2022-11-15T16:36:01;1.67;;;0.80;;
55069;SDS011;40967;52.070;8.596;2022-11-15T16:38:28;1.40;;;0.70;;
55069;SDS011;40967;52.070;8.596;2022-11-15T16:40:53;1.53;;;0.60;;
55069;SDS011;40967;52.070;8.596;2022-11-15T16:43:19;1.50;;;0.80;;
55069;SDS011;40967;52.070;8.596;2022-11-15T16:45:44;0.80;;;0.50;;
55069;SDS011;40967;52.070;8.596;2022-11-15T16:48:19;0.93;;;0.52;;
55069;SDS011;40967;52.070;8.596;2022-11-15T16:50:47;0.80;;;0.50;;
55069;SDS011;40967;52.070;8.596;2022-11-15T16:53:12;0.63;;;0.40;;
55069;SDS011;40967;52.070;8.596;2022-11-15T16:55:37;0.80;;;0.50;;
55069;SDS011;40967;52.070;8.596;2022-11-15T16:58:03;1.42;;;0.50;;
55069;SDS011;40967;52.070;8.596;2022-11-15T17:00:28;0.85;;;0.40;;
55069;SDS011;40967;52.070;8.596;2022-11-15T17:02:54;0.63;;;0.43;;
55069;SDS011;40967;52.070;8.596;2022-11-15T17:05:20;0.95;;;0.40;;
55069;SDS011;40967;52.070;8.596;2022-11-15T17:07:48;0.40;;;0.30;;
55069;SDS011;40967;52.070;8.596;2022-11-15T17:10:19;0.73;;;0.40;;
55069;SDS011;40967;52.070;8.596;2022-11-15T17:12:48;0.60;;;0.40;;
55069;SDS011;40967;52.070;8.596;2022-11-15T17:15:14;0.57;;;0.30;;